Time;durP1;ratioP1;P1;durP2;ratioP2;P2;SDS_P1;SDS_P2;PMS_P1;PMS_P2;Temp;Humidity;BMP_temperature;BMP_pressure;BME280_temperature;BME280_humidity;BME280_pressure;Samples;Min_cycle;Max_cycle;Signal;HPM_P1;HPM_P2
2022/11/14 00:01:27;;;;;;;6.72;5.82;;;;;;;-146.48;100.00;60459.00;5306178;28;20486;-74
2022/11/14 00:03:58;;;;;;;6.75;6.05;;;;;;;-146.48;100.00;60459.00;5306719;28;20020;-74
2022/11/14 00:06:29;;;;;;;6.93;6.25;;;;;;;-146.48;100.00;60459.00;5305612;28;20062;-74
2022/11/14 00:09:01;;;;;;;6.05;5.45;;;;;;;-146.48;100.00;60459.00;5306457;28;20036;-74
2022/11/14 00:11:32;;;;;;;6.85;6.10;;;;;;;-146.48;100.00;60459.00;5305978;28;20028;-74
2022/11/14 00:14:03;;;;;;;7.05;6.35;;;;;;;-146.48;100.00;60459.00;5305469;28;20036;-74
2022/11/14 00:16:35;;;;;;;8.40;5.50;;;;;;;-146.48;100.00;60459.00;5305524;28;20305;-74
2022/11/14 00:19:06;;;;;;;6.43;5.82;;;;;;;-146.48;100.00;60459.00;5305327;28;20436;-74
2022/11/14 00:21:37;;;;;;;6.85;5.53;;;;;;;-146.48;100.00;60459.00;5305706;28;20028;-74
2022/11/14 00:24:09;;;;;;;7.15;6.28;;;;;;;-146.48;100.00;60459.00;5306203;28;20520;-74
2022/11/14 00:26:40;;;;;;;6.35;5.68;;;;;;;-146.48;100.00;60459.00;5304802;28;20107;-74
2022/11/14 00:29:13;;;;;;;7.60;6.80;;;;;;;-146.48;100.00;60459.00;5305684;28;20103;-74
2022/11/14 00:31:45;;;;;;;9.65;6.68;;;;;;;-146.48;100.00;60459.00;5305928;28;20468;-73
2022/11/14 00:34:16;;;;;;;6.82;6.07;;;;;;;-146.48;100.00;60459.00;5304413;28;20048;-74
2022/11/14 00:36:47;;;;;;;6.63;5.93;;;;;;;-146.48;100.00;60459.00;5306026;28;20028;-74
2022/11/14 00:39:18;;;;;;;6.68;5.43;;;;;;;-146.48;100.00;60459.00;5305245;28;20028;-74
2022/11/14 00:41:50;;;;;;;7.15;5.80;;;;;;;-146.48;100.00;60459.00;5304970;28;20020;-73
2022/11/14 00:44:21;;;;;;;6.10;4.90;;;;;;;-146.48;100.00;60459.00;5304909;28;20031;-74
2022/11/14 00:46:52;;;;;;;6.80;4.95;;;;;;;-146.48;100.00;60459.00;5304053;28;20042;-74
2022/11/14 00:49:24;;;;;;;6.68;6.00;;;;;;;-146.48;100.00;60459.00;5304938;28;20035;-74
2022/11/14 00:51:55;;;;;;;7.90;5.93;;;;;;;-146.48;100.00;60459.00;5305742;28;20020;-73
2022/11/14 00:54:26;;;;;;;7.25;5.70;;;;;;;-146.48;100.00;60459.00;5304154;28;20035;-74
2022/11/14 00:56:57;;;;;;;7.53;6.00;;;;;;;-146.48;100.00;60459.00;5305474;28;20066;-74
2022/11/14 00:59:29;;;;;;;7.72;6.07;;;;;;;-146.48;100.00;60459.00;5304907;28;20024;-74
2022/11/14 01:02:00;;;;;;;9.40;6.10;;;;;;;-146.48;100.00;60459.00;5304610;28;20054;-74
2022/11/14 01:04:31;;;;;;;7.15;6.28;;;;;;;-146.48;100.00;60459.00;5304808;28;20020;-74
2022/11/14 01:07:03;;;;;;;7.30;6.38;;;;;;;-146.48;100.00;60459.00;5305203;28;20056;-74
2022/11/14 01:09:34;;;;;;;9.35;6.35;;;;;;;-146.48;100.00;60459.00;5304050;28;20136;-74
2022/11/14 01:12:05;;;;;;;8.38;5.72;;;;;;;-146.48;100.00;60459.00;5305312;28;20016;-74
2022/11/14 01:14:38;;;;;;;6.85;5.65;;;;;;;-146.48;100.00;60459.00;5304307;28;20024;-74
2022/11/14 01:17:09;;;;;;;6.32;5.18;;;;;;;-146.48;100.00;60459.00;5304281;28;20471;-73
2022/11/14 01:19:40;;;;;;;7.35;5.28;;;;;;;-146.48;100.00;60459.00;5304149;28;20050;-74
2022/11/14 01:22:12;;;;;;;5.78;5.10;;;;;;;-146.48;100.00;60459.00;5303982;28;20051;-74
2022/11/14 01:24:43;;;;;;;5.63;4.72;;;;;;;-146.48;100.00;60459.00;5304787;28;20027;-74
2022/11/14 01:27:14;;;;;;;4.97;4.22;;;;;;;-146.48;100.00;60459.00;5303987;28;20498;-74
2022/11/14 01:29:47;;;;;;;5.05;4.40;;;;;;;-146.48;100.00;60459.00;5304027;28;20028;-74
2022/11/14 01:32:18;;;;;;;6.50;4.47;;;;;;;-146.48;100.00;60459.00;5304001;28;20448;-74
2022/11/14 01:34:49;;;;;;;5.40;4.50;;;;;;;-146.48;100.00;60459.00;5304645;28;20047;-74
2022/11/14 01:37:20;;;;;;;6.75;4.68;;;;;;;-146.48;100.00;60459.00;5303442;28;20112;-74
2022/11/14 01:39:52;;;;;;;4.82;4.43;;;;;;;-146.48;100.00;60459.00;5304442;28;20039;-73
2022/11/14 01:42:23;;;;;;;4.82;4.25;;;;;;;-146.48;100.00;60459.00;5303868;28;20482;-72
2022/11/14 01:44:54;;;;;;;5.93;4.00;;;;;;;-146.48;100.00;60459.00;5303671;28;20371;-72
2022/11/14 01:47:29;;;;;;;5.30;4.50;;;;;;;-146.48;100.00;60459.00;5303962;28;20039;-73
2022/11/14 01:50:04;;;;;;;6.30;4.47;;;;;;;-146.48;100.00;60459.00;5304289;28;20103;-72
2022/11/14 01:52:38;;;;;;;5.85;4.90;;;;;;;-146.48;100.00;60459.00;5302941;28;20072;-73
2022/11/14 01:55:10;;;;;;;5.38;4.45;;;;;;;-146.48;100.00;60459.00;5304204;28;20467;-73
2022/11/14 01:57:45;;;;;;;8.30;5.35;;;;;;;-146.48;100.00;60459.00;5303005;28;20031;-73
2022/11/14 02:00:17;;;;;;;5.97;5.10;;;;;;;-146.48;100.00;60459.00;5303387;28;20052;-73
2022/11/14 02:02:48;;;;;;;7.13;4.90;;;;;;;-146.48;100.00;60459.00;5304154;28;20052;-73
2022/11/14 02:05:20;;;;;;;7.53;4.47;;;;;;;-146.48;100.00;60459.00;5302876;28;20525;-73
2022/11/14 02:07:51;;;;;;;6.30;4.70;;;;;;;-146.48;100.00;60459.00;5303833;28;20344;-72
2022/11/14 02:10:23;;;;;;;4.72;3.97;;;;;;;-146.48;100.00;60459.00;5303629;28;20020;-72
2022/11/14 02:12:54;;;;;;;5.43;4.30;;;;;;;-146.48;100.00;60459.00;5303161;28;20063;-72
2022/11/14 02:15:26;;;;;;;6.43;4.40;;;;;;;-146.48;100.00;60459.00;5303148;28;20031;-72
2022/11/14 02:18:00;;;;;;;8.23;4.45;;;;;;;-146.48;100.00;60459.00;5303568;28;20367;-72
2022/11/14 02:20:42;;;;;;;6.13;4.43;;;;;;;-146.48;100.00;60459.00;5302298;28;20124;-72
2022/11/14 02:23:13;;;;;;;5.78;4.00;;;;;;;-146.48;100.00;60459.00;5303127;28;20024;-73
2022/11/14 02:25:45;;;;;;;6.53;4.30;;;;;;;-146.48;100.00;60459.00;5302674;28;20102;-72
2022/11/14 02:28:16;;;;;;;5.65;4.20;;;;;;;-146.48;100.00;60459.00;5302871;28;20498;-72
2022/11/14 02:30:48;;;;;;;5.10;4.38;;;;;;;-146.48;100.00;60459.00;5303568;28;20093;-72
2022/11/14 02:33:19;;;;;;;5.80;4.40;;;;;;;-146.48;100.00;60459.00;5301898;28;20031;-73
2022/11/14 02:35:50;;;;;;;5.00;3.92;;;;;;;-146.48;100.00;60459.00;5303479;28;20043;-72
2022/11/14 02:38:22;;;;;;;6.65;4.13;;;;;;;-146.48;100.00;60459.00;5302912;28;20028;-73
2022/11/14 02:40:53;;;;;;;7.65;4.85;;;;;;;-146.48;100.00;60459.00;5302540;28;20031;-73
2022/11/14 02:43:24;;;;;;;5.03;4.18;;;;;;;-146.48;100.00;60459.00;5302957;28;20034;-73
2022/11/14 02:45:56;;;;;;;6.50;4.18;;;;;;;-146.48;100.00;60459.00;5303417;28;20031;-72
2022/11/14 02:48:27;;;;;;;4.70;3.70;;;;;;;-146.48;100.00;60459.00;5301884;28;20027;-72
2022/11/14 02:50:58;;;;;;;4.35;3.55;;;;;;;-146.48;100.00;60459.00;5303060;28;20038;-72
2022/11/14 02:53:30;;;;;;;10.90;4.18;;;;;;;-146.48;100.00;60459.00;5301565;28;20038;-73
2022/11/14 02:56:01;;;;;;;4.70;3.80;;;;;;;-146.48;100.00;60459.00;5303213;28;20024;-72
2022/11/14 02:58:32;;;;;;;5.13;3.88;;;;;;;-146.48;100.00;60459.00;5302414;28;20036;-72
2022/11/14 03:01:03;;;;;;;4.53;3.70;;;;;;;-146.48;100.00;60459.00;5302194;28;20074;-73
2022/11/14 03:03:35;;;;;;;5.60;4.43;;;;;;;-146.48;100.00;60459.00;5302273;28;20027;-73
2022/11/14 03:06:06;;;;;;;4.82;3.45;;;;;;;-146.48;100.00;60459.00;5302932;28;20036;-73
2022/11/14 03:08:37;;;;;;;7.18;4.22;;;;;;;-146.48;100.00;60459.00;5301892;28;20038;-73
2022/11/14 03:11:09;;;;;;;5.30;4.10;;;;;;;-146.48;100.00;60459.00;5302377;28;20075;-73
2022/11/14 03:13:41;;;;;;;4.80;4.30;;;;;;;-146.48;100.00;60459.00;5302298;28;20036;-73
2022/11/14 03:16:13;;;;;;;5.15;4.45;;;;;;;-146.48;100.00;60459.00;5301555;28;20032;-73
2022/11/14 03:18:44;;;;;;;6.85;4.22;;;;;;;-146.48;100.00;60459.00;5302691;28;20019;-73
2022/11/14 03:21:18;;;;;;;5.53;4.15;;;;;;;-146.48;100.00;60459.00;5302532;28;20031;-73
2022/11/14 03:23:49;;;;;;;4.95;3.85;;;;;;;-146.48;100.00;60459.00;5302063;28;20058;-73
2022/11/14 03:26:20;;;;;;;4.53;3.35;;;;;;;-146.48;100.00;60459.00;5302182;28;20421;-73
2022/11/14 03:28:54;;;;;;;3.85;2.80;;;;;;;-146.48;100.00;60459.00;5301645;28;20073;-73
2022/11/14 03:31:25;;;;;;;4.40;3.40;;;;;;;-146.48;100.00;60459.00;5302142;28;20498;-73
2022/11/14 03:33:56;;;;;;;5.85;3.78;;;;;;;-146.48;100.00;60459.00;5302588;28;20044;-73
2022/11/14 03:36:27;;;;;;;4.28;3.42;;;;;;;-146.48;100.00;60459.00;5301373;28;20031;-73
2022/11/14 03:38:59;;;;;;;4.30;3.65;;;;;;;-146.48;100.00;60459.00;5302430;28;20042;-73
2022/11/14 03:41:30;;;;;;;5.40;3.38;;;;;;;-146.48;100.00;60459.00;5301906;28;20160;-73
2022/11/14 03:44:02;;;;;;;4.28;3.03;;;;;;;-146.48;100.00;60459.00;5301785;28;20031;-73
2022/11/14 03:46:33;;;;;;;5.60;3.88;;;;;;;-146.48;100.00;60459.00;5301962;28;20032;-73
2022/11/14 03:49:05;;;;;;;4.65;3.33;;;;;;;-146.48;100.00;60459.00;5302328;28;20032;-73
2022/11/14 03:51:36;;;;;;;4.40;2.90;;;;;;;-146.48;100.00;60459.00;5300878;28;20450;-72
2022/11/14 03:54:07;;;;;;;5.45;3.70;;;;;;;-146.48;100.00;60459.00;5302280;28;20085;-73
2022/11/14 03:56:38;;;;;;;5.03;3.60;;;;;;;-146.48;100.00;60459.00;5302138;28;20092;-73
2022/11/14 03:59:10;;;;;;;5.10;3.53;;;;;;;-146.48;100.00;60459.00;5301660;28;20074;-73
2022/11/14 04:01:41;;;;;;;5.55;3.65;;;;;;;-146.48;100.00;60459.00;5301797;28;20063;-73
2022/11/14 04:04:12;;;;;;;4.55;3.08;;;;;;;-146.48;100.00;60459.00;5300994;28;20035;-73
2022/11/14 04:06:44;;;;;;;4.53;3.92;;;;;;;-146.48;100.00;60459.00;5302614;28;20047;-73
2022/11/14 04:09:16;;;;;;;6.82;3.97;;;;;;;-146.48;100.00;60459.00;5302056;28;20384;-73
2022/11/14 04:11:47;;;;;;;4.32;3.58;;;;;;;-146.48;100.00;60459.00;5301609;28;20028;-72
2022/11/14 04:14:18;;;;;;;4.88;3.72;;;;;;;-146.48;100.00;60459.00;5301668;28;20062;-72
2022/11/14 04:16:50;;;;;;;5.85;3.83;;;;;;;-146.48;100.00;60459.00;5302249;28;20008;-73
2022/11/14 04:19:21;;;;;;;6.93;4.50;;;;;;;-146.48;100.00;60459.00;5300912;28;20058;-73
2022/11/14 04:21:52;;;;;;;5.35;3.65;;;;;;;-146.48;100.00;60459.00;5303681;28;20070;-73
2022/11/14 04:24:23;;;;;;;4.45;3.25;;;;;;;-146.48;100.00;60459.00;5305502;28;20032;-73
2022/11/14 04:26:55;;;;;;;5.05;3.42;;;;;;;-146.48;100.00;60459.00;5305336;28;20028;-73
2022/11/14 04:29:26;;;;;;;5.82;3.90;;;;;;;-146.48;100.00;60459.00;5305242;28;20047;-73
2022/11/14 04:31:57;;;;;;;5.32;3.33;;;;;;;-146.48;100.00;60459.00;5305249;28;20043;-73
2022/11/14 04:34:29;;;;;;;4.90;3.88;;;;;;;-146.48;100.00;60459.00;5305019;28;20129;-73
2022/11/14 04:37:00;;;;;;;5.68;3.85;;;;;;;-146.48;100.00;60459.00;5305991;28;20478;-73
2022/11/14 04:39:31;;;;;;;5.00;3.40;;;;;;;-146.48;100.00;60459.00;5304448;28;20099;-73
2022/11/14 04:42:03;;;;;;;4.25;3.22;;;;;;;-146.48;100.00;60459.00;5306051;28;20034;-73
2022/11/14 04:44:34;;;;;;;4.30;3.88;;;;;;;-146.48;100.00;60459.00;5305236;28;20020;-73
2022/11/14 04:47:05;;;;;;;5.40;4.32;;;;;;;-146.48;100.00;60459.00;5304972;28;20119;-73
2022/11/14 04:49:36;;;;;;;4.85;3.40;;;;;;;-146.48;100.00;60459.00;5305072;28;20063;-73
2022/11/14 04:52:08;;;;;;;5.40;3.55;;;;;;;-146.48;100.00;60459.00;5305427;28;20375;-73
2022/11/14 04:54:39;;;;;;;6.55;3.88;;;;;;;-146.48;100.00;60459.00;5304128;28;20085;-73
2022/11/14 04:57:10;;;;;;;5.00;3.58;;;;;;;-146.48;100.00;60459.00;5305447;28;20053;-73
2022/11/14 04:59:42;;;;;;;6.28;3.50;;;;;;;-146.48;100.00;60459.00;5304946;28;20081;-73
2022/11/14 05:02:13;;;;;;;6.30;4.18;;;;;;;-146.48;100.00;60459.00;5304020;28;20147;-73
2022/11/14 05:04:46;;;;;;;5.10;3.90;;;;;;;-146.48;100.00;60459.00;5305217;28;20028;-73
2022/11/14 05:07:17;;;;;;;4.30;3.65;;;;;;;-146.48;100.00;60459.00;5303759;28;20054;-73
2022/11/14 05:09:48;;;;;;;6.63;4.15;;;;;;;-146.48;100.00;60459.00;5305422;28;20437;-73
2022/11/14 05:12:20;;;;;;;5.28;4.03;;;;;;;-146.48;100.00;60459.00;5304705;28;20089;-73
2022/11/14 05:14:51;;;;;;;5.80;4.45;;;;;;;-146.48;100.00;60459.00;5304361;28;20024;-73
2022/11/14 05:17:22;;;;;;;5.25;3.60;;;;;;;-146.48;100.00;60459.00;5304214;28;20024;-72
2022/11/14 05:19:53;;;;;;;6.72;4.57;;;;;;;-146.48;100.00;60459.00;5305112;28;20032;-73
2022/11/14 05:22:25;;;;;;;6.53;4.25;;;;;;;-146.48;100.00;60459.00;5303730;28;20055;-73
2022/11/14 05:24:56;;;;;;;6.97;4.38;;;;;;;-146.48;100.00;60459.00;5304896;28;20028;-73
2022/11/14 05:27:28;;;;;;;7.78;4.95;;;;;;;-146.48;100.00;60459.00;5304209;28;20024;-73
2022/11/14 05:29:59;;;;;;;6.15;4.15;;;;;;;-146.48;100.00;60459.00;5303976;28;20027;-73
2022/11/14 05:32:31;;;;;;;5.38;3.83;;;;;;;-146.48;100.00;60459.00;5304277;28;20044;-73
2022/11/14 05:35:03;;;;;;;7.03;4.15;;;;;;;-146.48;100.00;60459.00;5304003;28;20055;-73
2022/11/14 05:37:34;;;;;;;6.20;4.55;;;;;;;-146.48;100.00;60459.00;5303414;28;20038;-73
2022/11/14 05:40:06;;;;;;;6.20;3.63;;;;;;;-146.48;100.00;60459.00;5304460;28;20115;-73
2022/11/14 05:42:37;;;;;;;5.93;4.18;;;;;;;-146.48;100.00;60459.00;5303006;28;20479;-73
2022/11/14 05:45:09;;;;;;;6.18;4.35;;;;;;;-146.48;100.00;60459.00;5304704;28;20418;-73
2022/11/14 05:47:40;;;;;;;7.97;4.53;;;;;;;-146.48;100.00;60459.00;5303662;28;20111;-73
2022/11/14 05:50:12;;;;;;;6.07;4.55;;;;;;;-146.48;100.00;60459.00;5303267;28;20110;-73
2022/11/14 05:52:43;;;;;;;5.78;4.18;;;;;;;-146.48;100.00;60459.00;5304213;28;20028;-73
2022/11/14 05:55:14;;;;;;;6.15;3.92;;;;;;;-146.48;100.00;60459.00;5303890;28;20106;-74
2022/11/14 05:57:46;;;;;;;5.57;3.50;;;;;;;-146.48;100.00;60459.00;5303305;28;20088;-74
2022/11/14 06:00:17;;;;;;;7.43;4.38;;;;;;;-146.48;100.00;60459.00;5303494;28;20419;-73
2022/11/14 06:02:53;;;;;;;5.38;3.97;;;;;;;-146.48;100.00;60459.00;5304213;28;20111;-74
2022/11/14 06:05:24;;;;;;;8.20;4.00;;;;;;;-146.48;100.00;60459.00;5302495;28;20097;-73
2022/11/14 06:07:57;;;;;;;6.22;3.75;;;;;;;-146.48;100.00;60459.00;5304093;28;20028;-73
2022/11/14 06:10:29;;;;;;;5.47;4.30;;;;;;;-146.48;100.00;60459.00;5302621;28;20114;-73
2022/11/14 06:13:00;;;;;;;6.65;3.88;;;;;;;-146.48;100.00;60459.00;5304132;28;20111;-73
2022/11/14 06:15:32;;;;;;;5.93;3.63;;;;;;;-146.48;100.00;60459.00;5303200;28;20051;-73
2022/11/14 06:18:03;;;;;;;5.38;3.97;;;;;;;-146.48;100.00;60459.00;5303151;28;20058;-73
2022/11/14 06:20:35;;;;;;;5.57;3.92;;;;;;;-146.48;100.00;60459.00;5303142;28;20042;-73
2022/11/14 06:23:06;;;;;;;6.40;4.03;;;;;;;-146.48;100.00;60459.00;5303994;28;20443;-73
2022/11/14 06:25:38;;;;;;;6.45;4.32;;;;;;;-146.48;100.00;60459.00;5302331;28;20067;-73
2022/11/14 06:28:09;;;;;;;5.35;3.80;;;;;;;-146.48;100.00;60459.00;5303502;28;20021;-73
2022/11/14 06:30:40;;;;;;;5.57;3.97;;;;;;;-146.48;100.00;60459.00;5303153;28;20052;-73
2022/11/14 06:33:11;;;;;;;5.20;4.00;;;;;;;-146.48;100.00;60459.00;5302324;28;20031;-73
2022/11/14 06:35:43;;;;;;;6.57;4.28;;;;;;;-146.48;100.00;60459.00;5303138;28;20028;-73
2022/11/14 06:38:14;;;;;;;6.43;4.00;;;;;;;-146.48;100.00;60459.00;5302748;28;20028;-73
2022/11/14 06:40:45;;;;;;;5.93;4.07;;;;;;;-146.48;100.00;60459.00;5302489;28;20032;-73
2022/11/14 06:43:16;;;;;;;5.70;4.45;;;;;;;-146.48;100.00;60459.00;5302965;28;20363;-73
2022/11/14 06:45:48;;;;;;;5.90;4.53;;;;;;;-146.48;100.00;60459.00;5301585;28;20085;-73
2022/11/14 06:48:19;;;;;;;6.32;4.45;;;;;;;-146.48;100.00;60459.00;5302397;28;20028;-73
2022/11/14 06:50:52;;;;;;;7.85;4.80;;;;;;;-146.48;100.00;60459.00;5302889;28;20019;-73
2022/11/14 06:53:26;;;;;;;7.10;4.85;;;;;;;-146.48;100.00;60459.00;5301696;28;20019;-74
2022/11/14 06:55:59;;;;;;;5.38;4.38;;;;;;;-146.48;100.00;60459.00;5296961;28;20059;-73
2022/11/14 06:58:37;;;;;;;5.63;4.30;;;;;;;-146.48;100.00;60459.00;5295857;28;20028;-73
2022/11/14 07:01:16;;;;;;;6.35;4.30;;;;;;;-146.48;100.00;60459.00;5300743;28;20032;-74
2022/11/14 07:03:48;;;;;;;8.65;5.32;;;;;;;-146.48;100.00;60459.00;5292107;28;20025;-74
2022/11/14 07:06:24;;;;;;;8.38;4.80;;;;;;;-146.48;100.00;60459.00;5296769;28;20028;-74
2022/11/14 07:08:56;;;;;;;8.90;4.32;;;;;;;-146.48;100.00;60459.00;5300628;28;20027;-74
2022/11/14 07:11:28;;;;;;;7.57;4.10;;;;;;;-146.48;100.00;60459.00;5300749;28;20032;-74
2022/11/14 07:14:01;;;;;;;7.50;4.78;;;;;;;-146.48;100.00;60459.00;5300000;28;20410;-74
2022/11/14 07:16:34;;;;;;;7.15;4.50;;;;;;;-146.48;100.00;60459.00;5301958;28;20036;-74
2022/11/14 07:19:08;;;;;;;7.57;4.32;;;;;;;-146.48;100.00;60459.00;5302683;28;20034;-74
2022/11/14 07:21:40;;;;;;;7.57;4.55;;;;;;;-146.48;100.00;60459.00;5301052;28;20059;-75
2022/11/14 07:24:11;;;;;;;6.55;4.45;;;;;;;-146.48;100.00;60459.00;5302329;28;20502;-74
2022/11/14 07:26:44;;;;;;;7.22;5.05;;;;;;;-146.48;100.00;60459.00;5302538;28;20016;-74
2022/11/14 07:29:16;;;;;;;7.13;4.68;;;;;;;-146.48;100.00;60459.00;5301546;28;20028;-75
2022/11/14 07:31:47;;;;;;;5.45;4.35;;;;;;;-146.48;100.00;60459.00;5302655;28;20371;-74
2022/11/14 07:34:18;;;;;;;8.68;5.03;;;;;;;-146.48;100.00;60459.00;5301734;28;20066;-74
2022/11/14 07:36:49;;;;;;;6.43;4.50;;;;;;;-146.48;100.00;60459.00;5301716;28;20024;-74
2022/11/14 07:39:21;;;;;;;10.00;4.95;;;;;;;-146.48;100.00;60459.00;5301922;28;20030;-75
2022/11/14 07:41:52;;;;;;;7.07;4.70;;;;;;;-146.48;100.00;60459.00;5301939;28;20027;-75
2022/11/14 07:44:23;;;;;;;5.82;4.20;;;;;;;-146.48;100.00;60459.00;5302073;28;20066;-75
2022/11/14 07:46:55;;;;;;;7.00;4.53;;;;;;;-146.48;100.00;60459.00;5302561;28;20074;-75
2022/11/14 07:49:26;;;;;;;6.22;4.13;;;;;;;-146.48;100.00;60459.00;5300901;28;20111;-75
2022/11/14 07:51:57;;;;;;;8.98;4.95;;;;;;;-146.48;100.00;60459.00;5302655;28;20028;-75
2022/11/14 07:54:28;;;;;;;7.18;4.53;;;;;;;-146.48;100.00;60459.00;5301936;28;20036;-75
2022/11/14 07:57:00;;;;;;;7.68;5.57;;;;;;;-146.48;100.00;60459.00;5303405;28;20024;-75
2022/11/14 07:59:31;;;;;;;7.88;5.38;;;;;;;-146.48;100.00;60459.00;5305882;28;20301;-75
2022/11/14 08:02:02;;;;;;;9.27;4.45;;;;;;;-146.48;100.00;60459.00;5306687;28;20040;-75
2022/11/14 08:04:35;;;;;;;6.55;4.53;;;;;;;-146.48;100.00;60459.00;5305400;28;20368;-75
2022/11/14 08:07:07;;;;;;;9.10;4.82;;;;;;;-146.48;100.00;60459.00;5305958;28;20475;-75
2022/11/14 08:09:38;;;;;;;8.75;4.68;;;;;;;-146.48;100.00;60459.00;5306005;28;20069;-75
2022/11/14 08:12:09;;;;;;;6.45;4.35;;;;;;;-146.48;100.00;60459.00;5305554;28;20024;-77
2022/11/14 08:14:41;;;;;;;7.38;4.60;;;;;;;-146.48;100.00;60459.00;5305904;28;20032;-70
2022/11/14 08:17:12;;;;;;;10.55;6.05;;;;;;;-146.48;100.00;60459.00;5304677;28;20024;-73
2022/11/14 08:19:43;;;;;;;7.18;4.65;;;;;;;-146.48;100.00;60459.00;5306152;28;20028;-74
2022/11/14 08:22:15;;;;;;;6.88;5.05;;;;;;;-146.48;100.00;60459.00;5305358;28;20036;-74
2022/11/14 08:24:46;;;;;;;7.15;4.85;;;;;;;-146.48;100.00;60459.00;5305236;28;20020;-74
2022/11/14 08:27:17;;;;;;;5.28;4.30;;;;;;;-146.48;100.00;60459.00;5305578;28;20020;-74
2022/11/14 08:29:50;;;;;;;6.20;4.78;;;;;;;-146.48;100.00;60459.00;5305861;28;20069;-73
2022/11/14 08:32:22;;;;;;;6.80;4.40;;;;;;;-146.48;100.00;60459.00;5304119;28;20036;-75
2022/11/14 08:34:53;;;;;;;6.28;4.60;;;;;;;-146.48;100.00;60459.00;5305678;28;20052;-78
2022/11/14 08:37:24;;;;;;;6.68;4.45;;;;;;;-146.48;100.00;60459.00;5305160;28;20145;-78
2022/11/14 08:39:56;;;;;;;8.43;4.97;;;;;;;-146.48;100.00;60459.00;5305207;28;20071;-74
2022/11/14 08:42:27;;;;;;;7.47;5.10;;;;;;;-146.48;100.00;60459.00;5305098;28;20020;-73
2022/11/14 08:44:59;;;;;;;6.90;5.07;;;;;;;-146.48;100.00;60459.00;5304774;28;20063;-73
2022/11/14 08:47:30;;;;;;;6.13;4.90;;;;;;;-146.48;100.00;60459.00;5303725;28;20111;-73
2022/11/14 08:50:01;;;;;;;6.93;4.68;;;;;;;-146.48;100.00;60459.00;5305241;28;20464;-74
2022/11/14 08:52:32;;;;;;;6.07;4.45;;;;;;;-146.48;100.00;60459.00;5304165;28;20439;-73
2022/11/14 08:55:04;;;;;;;6.82;4.70;;;;;;;-146.48;100.00;60459.00;5305501;28;20150;-73
2022/11/14 08:57:35;;;;;;;7.50;4.78;;;;;;;-146.48;100.00;60459.00;5304660;28;20028;-74
2022/11/14 09:00:07;;;;;;;6.63;5.35;;;;;;;-146.48;100.00;60459.00;5304169;28;20032;-74
2022/11/14 09:02:40;;;;;;;7.45;5.18;;;;;;;-146.48;100.00;60459.00;5304502;28;20428;-74
2022/11/14 09:05:11;;;;;;;6.03;5.03;;;;;;;-146.48;100.00;60459.00;5304918;28;20492;-75
2022/11/14 09:07:42;;;;;;;6.57;5.00;;;;;;;-146.48;100.00;60459.00;5303591;28;20031;-73
2022/11/14 09:10:14;;;;;;;6.07;4.57;;;;;;;-146.48;100.00;60459.00;5303961;28;20111;-76
2022/11/14 09:12:46;;;;;;;6.45;5.38;;;;;;;-146.48;100.00;60459.00;5304908;28;20032;-75
2022/11/14 09:15:17;;;;;;;6.28;5.03;;;;;;;-146.48;100.00;60459.00;5303541;28;20034;-75
2022/11/14 09:17:52;;;;;;;5.75;4.57;;;;;;;-146.48;100.00;60459.00;5305048;28;20032;-75
2022/11/14 09:20:25;;;;;;;6.78;5.28;;;;;;;-146.48;100.00;60459.00;5303480;28;20105;-75
2022/11/14 09:23:00;;;;;;;6.43;5.00;;;;;;;-146.48;100.00;60459.00;5305007;28;20488;-75
2022/11/14 09:25:31;;;;;;;9.15;5.55;;;;;;;-146.48;100.00;60459.00;5300454;28;20058;-75
2022/11/14 09:28:07;;;;;;;5.50;4.97;;;;;;;-146.48;100.00;60459.00;5302869;28;20052;-74
2022/11/14 09:30:40;;;;;;;7.68;5.75;;;;;;;-146.48;100.00;60459.00;5303877;28;20024;-74
2022/11/14 09:33:11;;;;;;;6.97;5.50;;;;;;;-146.48;100.00;60459.00;5304178;28;20084;-75
2022/11/14 09:35:42;;;;;;;6.82;5.55;;;;;;;-146.48;100.00;60459.00;5303035;28;20507;-75
2022/11/14 09:38:14;;;;;;;9.65;5.80;;;;;;;-146.48;100.00;60459.00;5303548;28;20028;-75
2022/11/14 09:41:04;;;;;;;6.88;5.25;;;;;;;-146.48;100.00;60459.00;5304710;28;20400;-74
2022/11/14 09:44:03;;;;;;;7.18;5.55;;;;;;;-146.48;100.00;60459.00;5303141;28;20036;-74
2022/11/14 09:46:37;;;;;;;7.43;5.55;;;;;;;-146.48;100.00;60459.00;5303658;28;20032;-75
2022/11/14 09:49:33;;;;;;;7.28;5.97;;;;;;;-146.48;100.00;60459.00;5303390;28;20036;-74
2022/11/14 09:52:14;;;;;;;7.68;6.00;;;;;;;-146.48;100.00;60459.00;5304450;28;20410;-74
2022/11/14 09:54:53;;;;;;;7.07;6.38;;;;;;;-146.48;100.00;60459.00;5304173;28;20099;-74
2022/11/14 09:57:25;;;;;;;7.15;5.50;;;;;;;-146.48;100.00;60459.00;5303044;28;20367;-74
2022/11/14 09:59:57;;;;;;;7.13;5.25;;;;;;;-146.48;100.00;60459.00;5304325;28;20475;-74
2022/11/14 10:03:10;;;;;;;7.10;5.72;;;;;;;-146.48;100.00;60459.00;5302569;28;20039;-76
2022/11/14 10:05:47;;;;;;;6.97;5.88;;;;;;;-146.48;100.00;60459.00;5303297;28;20036;-76
2022/11/14 10:08:48;;;;;;;6.85;6.13;;;;;;;-146.48;100.00;60459.00;5303516;28;20115;-76
2022/11/14 10:11:42;;;;;;;7.47;6.10;;;;;;;-146.48;100.00;60459.00;5302588;28;20039;-75
2022/11/14 10:14:24;;;;;;;6.05;5.45;;;;;;;-146.48;100.00;60459.00;5303361;28;20478;-75
2022/11/14 10:17:06;;;;;;;6.43;5.75;;;;;;;-146.48;100.00;60459.00;5303346;28;20043;-75
2022/11/14 10:19:48;;;;;;;6.90;5.95;;;;;;;-146.48;100.00;60459.00;5303485;28;20387;-75
2022/11/14 10:22:20;;;;;;;7.43;5.82;;;;;;;-146.48;100.00;60459.00;5303579;28;20021;-73
2022/11/14 10:25:03;;;;;;;9.27;6.68;;;;;;;-146.48;100.00;60459.00;5303152;28;20036;-73
2022/11/14 10:27:41;;;;;;;9.38;7.32;;;;;;;-146.48;100.00;60459.00;5303189;28;20044;-72
2022/11/14 10:30:17;;;;;;;8.75;6.88;;;;;;;-146.48;100.00;60459.00;5303266;28;20423;-73
2022/11/14 10:33:09;;;;;;;8.60;6.60;;;;;;;-146.48;100.00;60459.00;5302724;28;20055;-72
2022/11/14 10:35:44;;;;;;;6.18;5.57;;;;;;;-146.48;100.00;60459.00;5302950;28;20075;-76
2022/11/14 10:38:23;;;;;;;10.02;6.75;;;;;;;-146.48;100.00;60459.00;5302063;28;20453;-75
2022/11/14 10:41:03;;;;;;;8.80;6.97;;;;;;;-146.48;100.00;60459.00;5303728;28;20039;-75
2022/11/14 10:43:45;;;;;;;9.60;7.13;;;;;;;-146.48;100.00;60459.00;5302544;28;20111;-74
2022/11/14 10:46:25;;;;;;;9.15;6.97;;;;;;;-146.48;100.00;60459.00;5301699;28;20039;-72
2022/11/14 10:48:58;;;;;;;9.30;6.75;;;;;;;-146.48;100.00;60459.00;5303269;28;20016;-72
2022/11/14 10:51:37;;;;;;;9.73;6.68;;;;;;;-146.48;100.00;60459.00;5302617;28;20118;-71
2022/11/14 10:54:08;;;;;;;7.75;6.50;;;;;;;-146.48;100.00;60459.00;5302581;28;20475;-72
2022/11/14 10:56:51;;;;;;;8.57;7.53;;;;;;;-146.48;100.00;60459.00;5302538;28;20161;-71
2022/11/14 10:59:23;;;;;;;11.15;7.05;;;;;;;-146.48;100.00;60459.00;5301884;28;20028;-73
2022/11/14 11:01:57;;;;;;;9.35;7.55;;;;;;;-146.48;100.00;60459.00;5303253;28;20028;-74
2022/11/14 11:04:35;;;;;;;9.60;7.47;;;;;;;-146.48;100.00;60459.00;5302530;28;20020;-73
2022/11/14 11:07:06;;;;;;;8.57;7.63;;;;;;;-146.48;100.00;60459.00;5302221;28;20474;-74
2022/11/14 11:12:35;;;;;;;8.13;6.97;;;;;;;-146.48;100.00;60459.00;5302576;28;20024;-75
2022/11/14 11:15:38;;;;;;;9.60;7.97;;;;;;;-146.48;100.00;60459.00;5302151;28;20506;-74
2022/11/14 11:18:28;;;;;;;10.20;8.30;;;;;;;-146.48;100.00;60459.00;5291469;28;20134;-74
2022/11/14 11:21:00;;;;;;;8.18;7.38;;;;;;;-146.48;100.00;60459.00;5280905;28;20035;-72
2022/11/14 11:23:55;;;;;;;8.48;7.18;;;;;;;-146.48;100.00;60459.00;5281057;28;20810;-75
2022/11/14 11:26:29;;;;;;;9.60;7.72;;;;;;;-146.48;100.00;60459.00;5281550;28;20406;-75
2022/11/14 11:29:15;;;;;;;10.68;8.27;;;;;;;-146.48;100.00;60459.00;5280822;28;20028;-75
2022/11/14 11:31:57;;;;;;;11.88;9.68;;;;;;;-146.48;100.00;60459.00;5281349;28;20021;-72
2022/11/14 11:34:32;;;;;;;11.13;9.35;;;;;;;-146.48;100.00;60459.00;5279821;28;20512;-74
2022/11/14 11:37:19;;;;;;;11.07;9.18;;;;;;;-146.48;100.00;60459.00;5281567;28;20027;-71
2022/11/14 11:39:55;;;;;;;10.38;8.45;;;;;;;-146.48;100.00;60459.00;5281466;28;20054;-72